Minter City, Mississippi
Current Conditions -  °F | °C
As of 10:53 AM on Monday 22 Dec 2014 (Local Time) from KGWO Reporting Station
Overcast Overcast  
Wind Chill: 58°   Ceiling: 800
Heat Index: 58°   Visibility: 10mi
Dew Point: 53°   Wind: 12mph
Humidity: 84%   Direction: 170°S
Pressure: 29.81"   Gusts: NA
Location:  33.75°N, 90.29°W
Report Text: KGWO 221653Z AUTO 17010KT 10SM OVC008 14/12 A2981 RMK AO2 SLP092 T01440117
Loading
Personal Weather Stations






























Interactive Weather Map New forecast layout! Learn more

10-Day Weather Forecast

Advertisements
Track Severe Weather on mobile